Time;durP1;ratioP1;P1;durP2;ratioP2;P2;SDS_P1;SDS_P2;PMS_P1;PMS_P2;Temp;Humidity;BMP_temperature;BMP_pressure;BME280_temperature;BME280_humidity;BME280_pressure;Samples;Min_cycle;Max_cycle;Signal;HPM_P1;HPM_P2
2023/10/10 00:01:17;;;;;;;7.10;3.97;;;16.20;99.90;;;;;;4881340;29;20045;-77
2023/10/10 00:03:45;;;;;;;5.95;3.70;;;16.60;99.90;;;;;;4881853;29;20076;-77
2023/10/10 00:06:13;;;;;;;10.40;3.47;;;17.00;99.90;;;;;;4881596;29;20040;-77
2023/10/10 00:08:46;;;;;;;5.25;3.80;;;14.90;99.90;;;;;;4898072;29;20045;-77
2023/10/10 00:11:19;;;;;;;8.13;4.47;;;;;;;;;;4881275;29;20080;-77
2023/10/10 00:13:46;;;;;;;8.35;4.32;;;16.00;99.90;;;;;;4881275;29;20085;-77
2023/10/10 00:16:38;;;;;;;5.30;3.90;;;16.10;99.90;;;;;;4881466;29;20059;-77
2023/10/10 00:21:54;;;;;;;12.27;4.57;;;16.20;99.90;;;;;;4881315;29;20056;-77
2023/10/10 00:24:24;;;;;;;9.38;4.35;;;;;;;;;;4881240;29;20080;-77
2023/10/10 00:26:49;;;;;;;6.93;4.03;;;17.00;99.90;;;;;;4881210;29;20053;-76
2023/10/10 00:29:22;;;;;;;7.13;3.92;;;15.90;99.90;;;;;;4881410;29;20107;-77
2023/10/10 00:31:55;;;;;;;6.43;4.20;;;;;;;;;;4881184;29;20044;-76
2023/10/10 00:34:29;;;;;;;5.65;4.10;;;16.90;99.90;;;;;;4881167;29;20379;-76
2023/10/10 00:37:01;;;;;;;6.40;3.92;;;;;;;;;;4881145;29;20101;-76
2023/10/10 00:39:30;;;;;;;6.63;4.05;;;15.70;99.90;;;;;;4881248;29;20056;-76
2023/10/10 00:42:04;;;;;;;6.82;4.10;;;15.90;99.90;;;;;;4865638;29;20565;-70
2023/10/10 00:44:30;;;;;;;5.30;3.65;;;16.50;99.90;;;;;;4883370;29;20166;-70
2023/10/10 00:46:57;;;;;;;7.32;4.25;;;;;;;;;;4883332;29;20084;-70
2023/10/10 00:49:25;;;;;;;5.47;3.75;;;15.90;99.90;;;;;;4884462;29;20052;-70
2023/10/10 00:51:53;;;;;;;6.97;4.30;;;15.70;99.90;;;;;;4884231;29;20468;-70
2023/10/10 00:56:54;;;;;;;6.47;3.75;;;16.10;99.90;;;;;;4891705;29;20040;-70
2023/10/10 00:59:27;;;;;;;7.85;3.80;;;;;;;;;;4905376;29;20045;-70
2023/10/10 01:01:53;;;;;;;8.70;3.55;;;14.90;99.90;;;;;;4887946;29;20040;-71
2023/10/10 01:04:28;;;;;;;5.93;3.78;;;;;;;;;;4886842;29;20069;-70
2023/10/10 01:06:55;;;;;;;6.18;3.83;;;15.90;99.90;;;;;;4918595;29;20037;-70
2023/10/10 01:09:33;;;;;;;5.20;3.70;;;15.90;99.90;;;;;;4890941;29;20088;-71
2023/10/10 01:12:00;;;;;;;6.75;3.78;;;14.90;99.90;;;;;;4881043;29;20391;-71
2023/10/10 01:14:26;;;;;;;7.55;4.28;;;16.30;99.90;;;;;;4883309;29;20055;-71
2023/10/10 01:16:57;;;;;;;8.10;4.30;;;15.50;99.90;;;;;;4884721;29;20079;-71
2023/10/10 01:19:28;;;;;;;5.45;4.10;;;;;;;;;;4869229;29;20044;-71
2023/10/10 01:21:57;;;;;;;6.93;4.28;;;15.70;99.90;;;;;;4884586;29;20044;-71
2023/10/10 01:24:32;;;;;;;6.07;4.40;;;15.60;99.90;;;;;;4868892;29;20041;-70
2023/10/10 01:27:13;;;;;;;7.95;4.32;;;;;;;;;;4884403;29;20048;-70
2023/10/10 01:29:50;;;;;;;11.93;4.78;;;;;;;;;;4868642;29;20055;-70
2023/10/10 01:32:17;;;;;;;11.07;4.50;;;;;;;;;;4884357;29;20096;-70
2023/10/10 01:34:44;;;;;;;6.60;4.45;;;15.60;99.90;;;;;;4883781;29;20135;-70
2023/10/10 01:37:22;;;;;;;7.70;4.63;;;16.40;99.90;;;;;;4868471;29;20060;-71
2023/10/10 01:42:45;;;;;;;13.68;4.82;;;;;;;;;;4884053;29;20088;-70
2023/10/10 01:45:17;;;;;;;8.90;5.00;;;14.50;99.90;;;;;;4869099;29;20052;-70
2023/10/10 01:47:56;;;;;;;8.77;4.85;;;;;;;;;;4883586;29;20044;-70
2023/10/10 01:50:25;;;;;;;7.72;4.28;;;16.30;99.90;;;;;;4883775;29;20124;-70
2023/10/10 01:52:55;;;;;;;7.63;4.38;;;;;;;;;;4883930;29;20466;-70
2023/10/10 01:55:24;;;;;;;8.70;4.32;;;;;;;;;;4869078;29;20052;-70
2023/10/10 01:57:50;;;;;;;6.43;4.07;;;;;;;;;;4883805;29;20088;-70
2023/10/10 02:00:26;;;;;;;6.13;4.28;;;;;;;;;;4868429;29;20052;-70
2023/10/10 02:02:53;;;;;;;7.28;4.45;;;15.50;99.90;;;;;;4883473;29;20095;-70
2023/10/10 02:08:03;;;;;;;5.72;4.25;;;16.00;99.90;;;;;;4883443;29;20071;-72
2023/10/10 02:10:32;;;;;;;6.88;4.35;;;15.60;99.90;;;;;;4868357;29;20569;-71
2023/10/10 02:12:59;;;;;;;6.50;4.40;;;14.60;99.90;;;;;;4900390;29;20087;-71
2023/10/10 02:15:26;;;;;;;9.50;4.40;;;15.80;99.90;;;;;;4883471;29;20072;-71
2023/10/10 02:17:54;;;;;;;13.27;4.45;;;;;;;;;;4883240;29;20125;-70
2023/10/10 02:23:53;;;;;;;;;;;15.50;99.90;;;;;;4883831;29;20049;-70
2023/10/10 02:25:48;;;;;;;7.28;3.92;;;;;;;;;;4869759;29;19962;-70
2023/10/10 02:30:45;;;;;;;8.40;4.97;;;;;;;;;;4883135;29;20048;-71
2023/10/10 02:33:37;;;;;;;6.28;4.18;;;14.60;99.90;;;;;;4883257;29;20044;-71
2023/10/10 02:35:59;;;;;;;9.50;4.57;;;14.50;99.90;;;;;;4882403;29;20061;-71
2023/10/10 02:38:31;;;;;;;8.40;4.82;;;;;;;;;;4867647;29;20512;-70
2023/10/10 02:41:25;;;;;;;;;;;15.40;99.90;;;;;;4883242;29;20115;-70
2023/10/10 02:46:42;;;;;;;9.48;4.50;;;15.70;99.90;;;;;;4882727;29;20045;-70
2023/10/10 02:49:12;;;;;;;10.48;5.07;;;;;;;;;;4883043;29;20056;-71
2023/10/10 02:51:43;;;;;;;11.40;4.68;;;15.50;99.90;;;;;;4882713;29;20187;-71
2023/10/10 02:57:26;;;;;;;10.40;5.03;;;15.60;99.90;;;;;;4869656;29;20048;-71
2023/10/10 02:59:50;;;;;;;8.68;4.85;;;;;;;;;;4869499;29;20060;-71
2023/10/10 03:02:21;;;;;;;15.45;5.63;;;;;;;;;;4882434;29;20057;-71
2023/10/10 03:07:29;;;;;;;11.73;5.93;;;;;;;;;;4882250;29;20099;-70
2023/10/10 03:12:41;;;;;;;10.85;6.28;;;;;;;;;;4882138;29;20481;-70
2023/10/10 03:15:27;;;;;;;10.88;5.90;;;14.80;99.90;;;;;;4867218;29;20044;-71
2023/10/10 03:20:49;;;;;;;12.55;6.32;;;;;;;;;;4882231;29;20056;-71
2023/10/10 03:31:05;;;;;;;10.35;6.50;;;14.40;99.90;;;;;;4881837;29;20053;-71
2023/10/10 03:33:44;;;;;;;13.75;7.15;;;16.10;99.90;;;;;;4881830;29;20501;-71
2023/10/10 05:25:37;;;;;;;28.13;16.33;;;;;;;;;;4873427;29;20509;-70
2023/10/10 05:28:03;;;;;;;24.50;14.32;;;;;;;;;;4884172;29;20041;-71
2023/10/10 05:30:45;;;;;;;26.58;15.23;;;;;;;;;;4884027;29;20057;-70
2023/10/10 05:33:12;;;;;;;31.27;16.27;;;16.40;99.90;;;;;;4884154;29;20119;-76
2023/10/10 05:35:40;;;;;;;30.13;17.15;;;15.40;99.90;;;;;;4883660;29;20449;-76
2023/10/10 05:38:09;;;;;;;27.02;17.10;;;14.40;99.90;;;;;;4883959;29;20357;-76
2023/10/10 05:40:38;;;;;;;29.63;17.27;;;15.30;99.90;;;;;;4883946;29;20044;-76
2023/10/10 05:45:54;;;;;;;30.58;17.52;;;;;;;;;;4878772;29;20052;-77
2023/10/10 05:48:21;;;;;;;33.22;18.50;;;15.30;99.90;;;;;;4883564;29;20041;-76
2023/10/10 05:50:48;;;;;;;30.55;17.80;;;;;;;;;;4883815;29;20104;-76
2023/10/10 05:53:16;;;;;;;32.35;18.15;;;;;;;;;;4868531;29;20151;-76
2023/10/10 05:55:43;;;;;;;32.33;17.77;;;;;;;;;;4883823;29;20135;-76
2023/10/10 05:58:10;;;;;;;32.15;18.08;;;;;;;;;;4883547;29;20052;-76
2023/10/10 06:00:37;;;;;;;28.00;17.20;;;;;;;;;;4883561;29;20060;-76
2023/10/10 06:03:06;;;;;;;33.60;17.13;;;;;;;;;;4868128;29;20048;-76
2023/10/10 06:05:33;;;;;;;33.08;18.98;;;16.20;99.90;;;;;;4883848;29;20040;-76
2023/10/10 06:07:59;;;;;;;36.22;19.27;;;15.50;99.90;;;;;;4868125;29;20040;-70
2023/10/10 06:10:31;;;;;;;35.17;19.10;;;;;;;;;;4883580;29;20048;-71
2023/10/10 06:12:57;;;;;;;34.08;18.33;;;;;;;;;;4883424;29;20911;-71
2023/10/10 06:15:24;;;;;;;34.78;20.05;;;;;;;;;;4868131;29;20049;-71
2023/10/10 06:17:53;;;;;;;34.03;19.17;;;;;;;;;;4883204;29;20048;-71
2023/10/10 06:20:21;;;;;;;32.65;19.20;;;;;;;;;;4883294;29;20127;-71
2023/10/10 06:22:54;;;;;;;32.45;19.20;;;15.90;99.90;;;;;;4868554;29;20056;-71
2023/10/10 06:25:23;;;;;;;32.70;18.60;;;15.60;99.90;;;;;;4883186;29;20059;-70
2023/10/10 06:27:55;;;;;;;34.85;18.42;;;;;;;;;;4883143;29;20180;-70
2023/10/10 06:30:21;;;;;;;37.08;17.02;;;14.50;99.90;;;;;;4883483;29;20049;-70
2023/10/10 06:32:47;;;;;;;30.50;18.00;;;;;;;;;;4883092;29;20052;-71
2023/10/10 06:37:59;;;;;;;30.05;17.25;;;;;;;;;;4883048;29;20064;-70
2023/10/10 06:40:30;;;;;;;33.47;18.30;;;16.50;99.90;;;;;;4883205;29;20495;-70
2023/10/10 06:42:57;;;;;;;22.63;15.52;;;;;;;;;;4867689;29;20497;-70
2023/10/10 06:45:34;;;;;;;27.42;17.50;;;;;;;;;;4883218;29;20489;-70
2023/10/10 06:48:01;;;;;;;29.48;17.98;;;;;;;;;;4882730;29;20123;-70
2023/10/10 06:50:31;;;;;;;28.38;17.02;;;;;;;;;;4867624;29;20037;-70
2023/10/10 06:53:00;;;;;;;35.13;19.75;;;15.50;99.90;;;;;;4882800;29;20128;-70
2023/10/10 06:55:36;;;;;;;34.80;19.23;;;;;;;;;;4868265;29;20159;-76
2023/10/10 06:58:02;;;;;;;33.85;18.70;;;;;;;;;;4883167;29;20458;-76
2023/10/10 07:00:45;;;;;;;35.28;19.40;;;16.40;99.90;;;;;;4883110;29;20677;-76
2023/10/10 07:03:18;;;;;;;36.78;18.88;;;14.90;99.90;;;;;;4882945;29;20049;-76
2023/10/10 07:05:45;;;;;;;35.70;19.70;;;;;;;;;;4868394;29;20052;-76
2023/10/10 07:08:19;;;;;;;40.50;21.80;;;;;;;;;;4899770;29;20040;-76
2023/10/10 07:10:45;;;;;;;36.10;21.23;;;;;;;;;;4882564;29;20567;-77
2023/10/10 07:13:18;;;;;;;33.10;20.58;;;;;;;;;;4883152;29;20048;-76
2023/10/10 07:15:51;;;;;;;37.00;21.75;;;;;;;;;;4868012;29;20108;-77
2023/10/10 07:18:23;;;;;;;35.35;20.45;;;15.90;99.90;;;;;;4883102;29;20052;-77
2023/10/10 07:21:04;;;;;;;36.85;21.25;;;15.90;99.90;;;;;;4883726;29;20049;-76
2023/10/10 07:23:37;;;;;;;36.33;21.02;;;15.70;99.90;;;;;;4884059;29;20053;-71
2023/10/10 07:26:23;;;;;;;36.90;21.88;;;16.80;99.90;;;;;;4883520;29;20056;-71
2023/10/10 07:28:53;;;;;;;34.83;19.70;;;;;;;;;;4883077;29;20055;-71
2023/10/10 07:31:21;;;;;;;39.58;21.98;;;16.00;99.90;;;;;;4883514;29;20051;-71
2023/10/10 07:34:04;;;;;;;35.75;21.60;;;16.50;99.90;;;;;;4870435;29;20119;-71
2023/10/10 07:36:33;;;;;;;40.85;21.52;;;16.90;99.90;;;;;;4905294;29;20072;-71
2023/10/10 07:41:45;;;;;;;34.03;20.30;;;;;;;;;;4902849;29;20074;-70
2023/10/10 07:44:16;;;;;;;36.45;22.00;;;16.00;99.90;;;;;;4902439;29;20104;-71
2023/10/10 07:47:10;;;;;;;41.42;22.27;;;15.60;99.90;;;;;;4894377;29;20119;-71
2023/10/10 07:49:28;;;;;;;43.38;22.25;;;;;;;;;;4881853;29;20093;-71
2023/10/10 07:51:54;;;;;;;44.60;23.88;;;;;;;;;;4898773;29;20044;-71
2023/10/10 07:54:38;;;;;;;41.65;23.33;;;16.40;99.90;;;;;;4881709;29;20051;-70
2023/10/10 07:57:11;;;;;;;44.05;24.85;;;;;;;;;;4881715;29;20060;-71
2023/10/10 07:59:37;;;;;;;45.65;24.63;;;;;;;;;;4881689;29;20048;-71
2023/10/10 08:02:24;;;;;;;46.78;26.13;;;;;;;;;;4881560;29;20132;-71
2023/10/10 08:04:57;;;;;;;40.92;24.15;;;16.20;99.90;;;;;;4866167;29;20489;-71
2023/10/10 08:07:24;;;;;;;46.92;25.35;;;;;;;;;;4881809;29;20048;-71
2023/10/10 08:10:11;;;;;;;40.88;23.50;;;15.20;99.90;;;;;;4881527;29;20393;-71
2023/10/10 08:12:37;;;;;;;40.92;23.80;;;16.20;99.90;;;;;;4884130;29;20066;-71
2023/10/10 08:15:19;;;;;;;42.50;25.27;;;15.40;99.90;;;;;;4881270;29;20123;-71
2023/10/10 08:17:54;;;;;;;45.57;24.93;;;16.50;99.90;;;;;;4881059;29;20052;-71
2023/10/10 08:20:34;;;;;;;47.38;25.70;;;16.40;99.90;;;;;;4851125;29;20086;-71
2023/10/10 08:23:01;;;;;;;48.42;26.55;;;;;;;;;;4898002;29;20076;-70
2023/10/10 08:25:28;;;;;;;59.20;27.42;;;17.20;99.90;;;;;;4881205;29;20549;-70
2023/10/10 08:28:01;;;;;;;51.17;27.30;;;;;;;;;;4881072;29;20048;-71
2023/10/10 08:30:27;;;;;;;48.70;26.08;;;;;;;;;;4881073;29;20482;-71
2023/10/10 08:32:57;;;;;;;59.35;26.27;;;15.30;99.90;;;;;;4865569;29;20047;-76
2023/10/10 08:35:25;;;;;;;45.47;25.10;;;16.30;99.90;;;;;;4881087;29;20088;-76
2023/10/10 08:37:52;;;;;;;50.22;26.73;;;;;;;;;;4881350;29;20108;-76
2023/10/10 08:40:21;;;;;;;49.53;27.30;;;17.50;99.90;;;;;;4881115;29;20091;-76
2023/10/10 08:42:50;;;;;;;42.60;26.05;;;16.70;99.90;;;;;;4881086;29;20051;-75
2023/10/10 08:45:23;;;;;;;50.88;27.45;;;16.50;99.90;;;;;;4880994;29;20460;-76
2023/10/10 08:48:00;;;;;;;47.92;26.90;;;16.80;99.90;;;;;;4865762;29;20049;-76
2023/10/10 08:50:26;;;;;;;51.42;27.38;;;;;;;;;;4880909;29;20101;-76
2023/10/10 08:52:53;;;;;;;52.05;28.50;;;;;;;;;;4881154;29;20390;-76
2023/10/10 08:55:28;;;;;;;52.85;27.77;;;15.60;99.90;;;;;;4865640;29;20044;-76
2023/10/10 08:57:57;;;;;;;49.50;28.00;;;;;;;;;;4865769;29;20464;-76
2023/10/10 09:00:27;;;;;;;52.10;28.20;;;;;;;;;;4881512;29;20477;-76
2023/10/10 09:02:56;;;;;;;56.45;28.17;;;16.80;99.90;;;;;;4881130;29;20513;-76
2023/10/10 09:05:28;;;;;;;52.40;29.08;;;;;;;;;;4865528;29;20050;-76
2023/10/10 09:07:55;;;;;;;53.05;27.95;;;17.00;99.90;;;;;;4897642;29;20045;-76
2023/10/10 09:10:28;;;;;;;45.30;25.48;;;17.30;99.90;;;;;;4881024;29;20049;-76
2023/10/10 09:12:58;;;;;;;46.95;26.63;;;17.20;99.90;;;;;;4881126;29;20464;-70
2023/10/10 09:15:27;;;;;;;48.33;28.38;;;17.30;99.90;;;;;;4865767;29;20104;-70
2023/10/10 09:18:12;;;;;;;51.25;27.88;;;17.50;99.90;;;;;;4880557;29;20048;-76
2023/10/10 09:20:39;;;;;;;44.85;27.20;;;;;;;;;;4880779;29;20112;-71
2023/10/10 09:23:21;;;;;;;47.15;26.80;;;18.20;99.90;;;;;;4880739;29;20517;-70
2023/10/10 09:26:29;;;;;;;51.58;27.40;;;17.60;99.90;;;;;;4897444;29;20490;-76
2023/10/10 09:29:03;;;;;;;50.15;28.13;;;;;;;;;;4880166;29;20060;-76
2023/10/10 09:31:33;;;;;;;47.40;27.73;;;;;;;;;;4880543;29;20048;-76
2023/10/10 09:34:05;;;;;;;49.78;28.02;;;;;;;;;;4881352;29;20045;-76
2023/10/10 09:36:39;;;;;;;41.63;25.83;;;17.80;99.90;;;;;;4869114;29;20514;-77
2023/10/10 09:39:09;;;;;;;49.97;27.83;;;17.60;99.90;;;;;;4883869;29;20045;-76
2023/10/10 09:42:00;;;;;;;48.33;27.75;;;16.40;99.90;;;;;;4884128;29;20044;-77
2023/10/10 09:57:48;;;;;;;48.20;26.98;;;18.00;99.90;;;;;;4883738;29;20088;-71
2023/10/10 10:00:30;;;;;;;52.63;27.30;;;18.40;99.90;;;;;;4883805;29;20445;-71
2023/10/10 10:03:00;;;;;;;48.63;26.17;;;17.40;99.90;;;;;;4883681;29;20049;-71
2023/10/10 10:05:28;;;;;;;44.90;27.13;;;18.80;99.90;;;;;;4883699;29;20150;-76
2023/10/10 10:08:13;;;;;;;38.90;23.65;;;18.30;99.90;;;;;;4883509;29;20498;-77
2023/10/10 10:10:52;;;;;;;46.10;25.45;;;18.30;99.90;;;;;;4883313;29;20058;-76
2023/10/10 10:13:37;;;;;;;47.58;26.02;;;19.00;99.90;;;;;;4883726;29;20071;-76
2023/10/10 10:16:37;;;;;;;44.72;25.58;;;18.60;99.90;;;;;;4867708;29;20041;-76
2023/10/10 10:19:17;;;;;;;46.60;25.70;;;;;;;;;;4883455;29;20041;-76
2023/10/10 10:22:06;;;;;;;45.35;24.83;;;19.00;99.90;;;;;;4883499;29;20058;-76
2023/10/10 10:24:50;;;;;;;43.28;25.30;;;18.30;99.90;;;;;;4883231;29;20045;-76
2023/10/10 10:27:35;;;;;;;46.67;25.88;;;17.80;99.90;;;;;;4883088;29;20108;-76
2023/10/10 10:32:51;;;;;;;43.03;23.55;;;18.80;99.90;;;;;;4894570;29;20477;-69
2023/10/10 10:35:36;;;;;;;43.83;24.50;;;19.00;99.90;;;;;;4877775;29;20053;-70
2023/10/10 10:38:06;;;;;;;38.08;22.70;;;17.90;99.90;;;;;;4881972;29;20059;-70
2023/10/10 10:43:21;;;;;;;44.45;25.05;;;18.40;99.90;;;;;;4876169;29;20045;-76
2023/10/10 10:45:52;;;;;;;43.08;25.05;;;18.50;99.90;;;;;;4868608;29;20050;-74
2023/10/10 10:48:34;;;;;;;46.60;25.67;;;18.40;99.90;;;;;;4888605;29;20041;-76
2023/10/10 10:51:25;;;;;;;41.33;25.45;;;18.50;99.90;;;;;;4883978;29;20033;-75
2023/10/10 10:54:00;;;;;;;41.30;25.20;;;18.40;99.90;;;;;;4904677;29;20048;-75
2023/10/10 10:59:19;;;;;;;41.03;23.80;;;17.60;99.90;;;;;;4896603;29;20405;-75
2023/10/10 11:01:51;;;;;;;42.58;24.23;;;18.30;99.90;;;;;;4903532;29;20032;-79
2023/10/10 11:04:26;;;;;;;39.60;24.65;;;18.80;99.90;;;;;;4898920;29;20052;-81
2023/10/10 11:07:07;;;;;;;42.75;22.88;;;18.80;99.90;;;;;;4897711;29;20028;-83
2023/10/10 11:09:36;;;;;;;41.57;22.73;;;;;;;;;;4905640;29;20076;-83
2023/10/10 11:12:05;;;;;;;45.45;22.38;;;19.10;99.90;;;;;;4889211;29;20774;-83
2023/10/10 11:14:45;;;;;;;36.65;22.05;;;19.30;99.90;;;;;;4877679;29;20044;-84
2023/10/10 11:17:18;;;;;;;42.75;22.60;;;20.20;99.90;;;;;;4882201;29;20072;-77
2023/10/10 11:19:54;;;;;;;37.50;21.85;;;20.10;99.90;;;;;;4882641;29;20040;-77
2023/10/10 11:22:40;;;;;;;33.30;19.85;;;;;;;;;;4882316;29;20139;-73
2023/10/10 11:25:11;;;;;;;35.10;20.45;;;;;;;;;;4882536;29;20066;-72
2023/10/10 11:27:43;;;;;;;38.95;21.13;;;20.00;99.90;;;;;;4877475;29;20517;-73
2023/10/10 11:30:24;;;;;;;35.30;19.58;;;19.00;99.90;;;;;;4865863;29;20053;-72
2023/10/10 11:33:00;;;;;;;41.53;19.67;;;;;;;;;;4881941;29;20071;-72
2023/10/10 11:35:26;;;;;;;33.17;19.88;;;19.20;99.90;;;;;;4877403;29;20537;-74
2023/10/10 11:37:59;;;;;;;34.95;20.35;;;20.50;99.90;;;;;;4876784;29;20052;-73
2023/10/10 11:43:03;;;;;;;37.95;19.33;;;20.00;99.90;;;;;;4880222;29;20405;-74
2023/10/10 11:45:30;;;;;;;34.92;19.05;;;20.20;99.90;;;;;;4875749;29;20057;-73
2023/10/10 11:48:00;;;;;;;36.08;19.27;;;19.70;99.90;;;;;;4860969;29;20044;-76
2023/10/10 11:50:45;;;;;;;37.85;19.45;;;20.20;99.90;;;;;;4881555;29;20397;-78
2023/10/10 11:53:23;;;;;;;33.55;18.40;;;19.80;99.90;;;;;;4880960;29;20490;-74
2023/10/10 11:55:52;;;;;;;31.98;18.58;;;;;;;;;;4876973;29;20120;-76
2023/10/10 11:58:35;;;;;;;31.80;18.00;;;;;;;;;;4897084;29;20127;-77
2023/10/10 12:01:10;;;;;;;33.70;17.20;;;;;;;;;;4882356;29;20040;-76
2023/10/10 12:06:05;;;;;;;34.13;16.52;;;19.70;99.90;;;;;;4881944;29;20063;-76
2023/10/10 12:08:45;;;;;;;34.75;17.13;;;20.90;99.90;;;;;;4893799;29;20460;-77
2023/10/10 12:11:21;;;;;;;33.88;17.70;;;21.10;99.90;;;;;;4879648;29;20060;-76
2023/10/10 12:13:48;;;;;;;32.30;16.05;;;20.90;99.90;;;;;;4882069;29;20198;-75
2023/10/10 12:16:17;;;;;;;34.42;17.33;;;21.00;99.90;;;;;;4882008;29;20490;-76
2023/10/10 12:18:53;;;;;;;36.58;18.15;;;;;;;;;;4898143;29;20045;-76
2023/10/10 12:21:31;;;;;;;35.28;17.17;;;20.90;99.90;;;;;;4866346;29;20052;-72
2023/10/10 12:23:57;;;;;;;32.67;16.42;;;;;;;;;;4880426;29;20480;-77
2023/10/10 12:26:24;;;;;;;31.35;17.00;;;19.10;99.90;;;;;;4873111;29;20056;-72
2023/10/10 12:28:53;;;;;;;34.20;16.65;;;19.20;99.90;;;;;;4880249;29;20433;-75
2023/10/10 12:31:22;;;;;;;32.00;16.98;;;21.10;99.90;;;;;;4881296;29;20128;-74
2023/10/10 12:33:49;;;;;;;33.45;17.10;;;21.00;99.90;;;;;;4881033;29;20466;-74
2023/10/10 12:36:16;;;;;;;38.38;17.75;;;20.80;99.90;;;;;;4881013;29;20056;-75
2023/10/10 12:38:41;;;;;;;31.73;17.75;;;21.00;99.90;;;;;;4881641;29;20490;-75
2023/10/10 12:41:17;;;;;;;35.03;17.33;;;;;;;;;;4872502;29;20040;-73
2023/10/10 12:43:43;;;;;;;30.83;16.98;;;;;;;;;;4879549;29;20089;-78
2023/10/10 12:46:09;;;;;;;28.70;16.33;;;19.10;99.90;;;;;;4881120;29;20489;-74
2023/10/10 12:48:41;;;;;;;31.85;16.35;;;20.80;99.90;;;;;;4861752;29;20376;-69
2023/10/10 12:51:10;;;;;;;34.22;15.73;;;20.00;99.90;;;;;;4869239;29;20101;-69
2023/10/10 12:53:42;;;;;;;29.58;14.75;;;20.80;99.90;;;;;;4864287;29;20160;-69
2023/10/10 12:56:16;;;;;;;30.08;16.02;;;;;;;;;;4878605;29;20123;-69
2023/10/10 12:58:51;;;;;;;30.75;16.70;;;20.20;99.90;;;;;;4881554;29;20136;-70
2023/10/10 13:01:22;;;;;;;37.63;18.95;;;19.20;99.90;;;;;;4880328;29;20045;-70
2023/10/10 13:03:48;;;;;;;36.17;19.17;;;19.40;99.90;;;;;;4866700;29;20059;-71
2023/10/10 13:06:15;;;;;;;40.28;18.65;;;;;;;;;;4881332;29;20040;-72
2023/10/10 13:11:20;;;;;;;32.08;18.10;;;20.70;99.90;;;;;;4884609;29;20059;-72
2023/10/10 13:13:56;;;;;;;36.95;20.10;;;20.50;99.90;;;;;;4869213;29;20040;-71
2023/10/10 13:16:27;;;;;;;36.75;19.80;;;20.60;99.90;;;;;;4884320;29;20044;-71
2023/10/10 13:18:57;;;;;;;38.90;22.60;;;21.20;99.90;;;;;;4881890;29;20049;-72
2023/10/10 13:21:23;;;;;;;40.92;23.30;;;20.60;99.90;;;;;;4883904;29;20048;-74
2023/10/10 13:23:53;;;;;;;38.83;23.85;;;21.40;99.90;;;;;;4899241;29;20083;-74
2023/10/10 13:26:23;;;;;;;39.63;23.08;;;20.90;99.90;;;;;;4868947;29;20064;-75
2023/10/10 13:28:49;;;;;;;41.95;23.65;;;20.20;99.90;;;;;;4884852;29;20055;-76
2023/10/10 13:31:16;;;;;;;43.08;25.05;;;20.30;99.90;;;;;;4884661;29;20044;-76
2023/10/10 13:33:43;;;;;;;38.47;25.40;;;20.30;99.90;;;;;;4884631;29;20044;-74
2023/10/10 13:36:11;;;;;;;45.15;27.10;;;20.40;99.90;;;;;;4884521;29;20059;-72
2023/10/10 13:39:05;;;;;;;46.03;26.83;;;20.70;99.90;;;;;;4869514;29;20055;-74
2023/10/10 13:41:35;;;;;;;42.47;27.48;;;21.10;99.90;;;;;;4867614;29;20503;-78
2023/10/10 13:44:03;;;;;;;42.35;27.20;;;20.00;99.90;;;;;;4878555;29;20421;-77
2023/10/10 13:46:33;;;;;;;47.00;29.52;;;19.70;99.90;;;;;;4885084;29;20060;-78
2023/10/10 13:48:59;;;;;;;48.72;30.02;;;;;;;;;;4885670;29;20063;-78
2023/10/10 13:51:28;;;;;;;49.38;29.73;;;20.40;99.90;;;;;;4884804;29;20041;-79
2023/10/10 13:53:56;;;;;;;45.90;29.98;;;20.00;99.90;;;;;;4885047;29;20041;-79
2023/10/10 13:56:22;;;;;;;49.65;31.88;;;19.50;99.90;;;;;;4885064;29;20037;-78
2023/10/10 13:58:48;;;;;;;53.72;32.42;;;20.60;99.90;;;;;;4884803;29;20048;-78
2023/10/10 14:01:29;;;;;;;54.65;34.03;;;20.00;99.90;;;;;;4884265;29;20101;-78
2023/10/10 14:04:24;;;;;;;51.13;31.03;;;20.20;99.90;;;;;;4885145;29;20066;-78
2023/10/10 14:06:45;;;;;;;54.60;32.55;;;;;;;;;;4887452;29;20353;-78
2023/10/10 14:09:12;;;;;;;46.33;29.95;;;20.90;99.90;;;;;;4884728;29;20033;-76
2023/10/10 14:11:38;;;;;;;53.08;29.13;;;;;;;;;;4888018;29;20037;-70
2023/10/10 14:14:06;;;;;;;45.72;29.85;;;19.60;99.90;;;;;;4902864;29;20060;-77
2023/10/10 14:16:32;;;;;;;51.28;30.50;;;20.70;99.90;;;;;;4895704;29;20565;-74
2023/10/10 14:19:01;;;;;;;53.00;30.23;;;;;;;;;;4896196;29;20045;-77
2023/10/10 14:21:27;;;;;;;45.80;28.10;;;20.40;99.90;;;;;;4899428;29;20040;-74
2023/10/10 14:24:04;;;;;;;44.55;28.50;;;20.40;99.90;;;;;;4883437;29;20127;-74
2023/10/10 14:26:33;;;;;;;48.92;29.67;;;19.30;99.90;;;;;;4879445;29;20044;-77
2023/10/10 14:29:06;;;;;;;50.42;30.85;;;19.80;99.90;;;;;;4888853;29;20108;-76
2023/10/10 14:31:42;;;;;;;46.13;29.23;;;20.50;99.90;;;;;;4868677;29;20041;-76
2023/10/10 14:34:11;;;;;;;46.92;28.73;;;19.80;99.90;;;;;;4882497;29;20128;-72
2023/10/10 14:36:39;;;;;;;50.33;29.00;;;19.60;99.90;;;;;;4883897;29;20056;-76
2023/10/10 14:39:28;;;;;;;46.85;28.98;;;21.00;99.90;;;;;;4885093;29;20496;-79
2023/10/10 14:41:57;;;;;;;53.08;29.30;;;20.40;99.90;;;;;;4873859;29;20443;-78
2023/10/10 14:44:28;;;;;;;49.15;29.42;;;20.90;99.90;;;;;;4876131;29;20036;-78
2023/10/10 14:46:55;;;;;;;47.03;28.13;;;21.00;99.90;;;;;;4870970;29;20049;-78
2023/10/10 14:49:29;;;;;;;48.28;29.42;;;20.40;99.90;;;;;;4882211;29;20043;-78
2023/10/10 14:51:56;;;;;;;48.85;29.23;;;20.90;99.90;;;;;;4872469;29;20142;-78
2023/10/10 14:54:23;;;;;;;47.55;29.15;;;20.90;99.90;;;;;;4879250;29;20033;-77
2023/10/10 14:56:50;;;;;;;47.38;28.63;;;19.00;99.90;;;;;;4860889;29;20079;-79
2023/10/10 14:59:31;;;;;;;52.03;30.48;;;20.00;99.90;;;;;;4866970;29;20469;-78
2023/10/10 15:01:59;;;;;;;48.70;28.83;;;;;;;;;;4868515;29;20074;-79
2023/10/10 15:04:28;;;;;;;45.03;29.02;;;20.30;99.90;;;;;;4879170;29;20489;-79
2023/10/10 15:06:55;;;;;;;47.20;29.35;;;19.40;99.90;;;;;;4882125;29;20458;-78
2023/10/10 15:09:24;;;;;;;49.58;29.02;;;20.00;99.90;;;;;;4882414;29;20146;-78
2023/10/10 15:11:52;;;;;;;46.38;28.48;;;20.00;99.90;;;;;;4872868;29;20048;-79
2023/10/10 15:14:21;;;;;;;43.00;27.58;;;20.20;99.90;;;;;;4882690;29;20091;-79
2023/10/10 15:16:47;;;;;;;44.30;27.42;;;19.70;99.90;;;;;;4893875;29;20228;-78
2023/10/10 15:19:13;;;;;;;44.10;26.90;;;18.80;99.90;;;;;;4863502;29;20053;-78
2023/10/10 15:21:40;;;;;;;47.50;26.35;;;19.60;99.90;;;;;;4881515;29;20184;-79
2023/10/10 15:24:12;;;;;;;43.45;24.88;;;18.50;99.90;;;;;;4882224;29;20048;-78
2023/10/10 15:26:45;;;;;;;45.00;26.98;;;19.90;99.90;;;;;;4881801;29;20447;-79
2023/10/10 15:29:12;;;;;;;41.78;25.15;;;18.70;99.90;;;;;;4882083;29;20048;-79
2023/10/10 15:31:40;;;;;;;40.92;24.73;;;18.50;99.90;;;;;;4881629;29;20044;-78
2023/10/10 15:34:16;;;;;;;39.15;24.48;;;19.50;99.90;;;;;;4881932;29;20478;-78
2023/10/10 15:36:45;;;;;;;42.75;24.38;;;;;;;;;;4876129;29;20053;-79
2023/10/10 15:39:12;;;;;;;38.60;24.33;;;20.60;99.90;;;;;;4877620;29;20049;-78
2023/10/10 15:41:40;;;;;;;40.10;23.50;;;18.70;99.90;;;;;;4878870;29;20048;-78
2023/10/10 15:44:08;;;;;;;39.13;24.40;;;;;;;;;;4879872;29;20120;-79
2023/10/10 15:46:36;;;;;;;35.03;23.45;;;18.40;99.90;;;;;;4881962;29;20513;-78
2023/10/10 15:49:08;;;;;;;36.75;23.85;;;19.00;99.90;;;;;;4872896;29;20036;-78
2023/10/10 15:51:37;;;;;;;38.60;24.55;;;;;;;;;;4871430;29;20055;-78
2023/10/10 15:54:05;;;;;;;39.35;23.75;;;18.50;99.90;;;;;;4876109;29;20037;-73
2023/10/10 15:56:30;;;;;;;38.50;23.10;;;18.80;99.90;;;;;;4881126;29;20036;-73
2023/10/10 15:58:56;;;;;;;40.65;23.88;;;19.30;99.90;;;;;;4881901;29;20116;-73
2023/10/10 16:01:30;;;;;;;38.15;23.80;;;18.50;99.90;;;;;;4897941;29;20512;-77
2023/10/10 16:04:12;;;;;;;41.28;22.77;;;19.90;99.90;;;;;;4881433;29;20055;-77
2023/10/10 16:06:38;;;;;;;37.17;22.42;;;19.60;99.90;;;;;;4881790;29;20091;-77
2023/10/10 16:09:20;;;;;;;35.30;21.83;;;20.00;99.90;;;;;;4878250;29;20062;-77
2023/10/10 16:11:55;;;;;;;37.75;21.58;;;;;;;;;;4889657;29;20183;-78
2023/10/10 16:14:21;;;;;;;33.65;21.27;;;20.00;99.90;;;;;;4881567;29;20087;-77
2023/10/10 16:16:48;;;;;;;32.97;21.73;;;19.20;99.90;;;;;;4880400;29;20036;-77
2023/10/10 16:19:30;;;;;;;32.78;21.35;;;19.50;99.90;;;;;;4881491;29;20051;-78
2023/10/10 16:21:57;;;;;;;35.13;21.45;;;;;;;;;;4871940;29;20056;-78
2023/10/10 16:24:27;;;;;;;34.05;21.10;;;;;;;;;;4865885;29;20049;-78
2023/10/10 16:27:01;;;;;;;31.77;20.63;;;19.30;99.90;;;;;;4879199;29;20052;-78
2023/10/10 16:29:32;;;;;;;38.30;21.70;;;20.20;99.90;;;;;;4874632;29;20513;-78
2023/10/10 16:32:06;;;;;;;32.10;20.67;;;19.30;99.90;;;;;;4880467;29;20044;-77